Time;durP1;ratioP1;P1;durP2;ratioP2;P2;SDS_P1;SDS_P2;PMS_P1;PMS_P2;Temp;Humidity;BMP_temperature;BMP_pressure;BME280_temperature;BME280_humidity;BME280_pressure;Samples;Min_cycle;Max_cycle;Signal;HPM_P1;HPM_P2
2023/06/07 00:00:11;;;;;;;;;;;;;;;17.08;100.00;99273.25;4278853;33;32909;-94
2023/06/07 00:02:39;;;;;;;;;;;;;;;17.22;100.00;99262.19;4290678;33;34874;-93
2023/06/07 00:05:12;;;;;;;;;;;;;;;17.18;100.00;99266.72;4293445;33;34847;-94
2023/06/07 00:07:41;;;;;;;;;;;;;;;17.21;100.00;99263.97;4292871;33;34542;-94
2023/06/07 00:10:09;;;;;;;;;;;;;;;17.01;100.00;99261.25;4305668;33;32677;-94
2023/06/07 00:12:38;;;;;;;;;;;;;;;16.90;100.00;99255.56;4305760;33;33708;-94
2023/06/07 00:15:07;;;;;;;;;;;;;;;17.10;100.00;99260.91;4292782;33;35038;-94
2023/06/07 00:17:37;;;;;;;;;;;;;;;17.22;100.00;99257.81;4292996;33;35293;-93
2023/06/07 00:20:06;;;;;;;;;;;;;;;17.06;100.00;99256.66;4305810;33;33286;-93
2023/06/07 00:22:37;;;;;;;;;;;;;;;17.10;100.00;99258.28;4305842;33;34207;-93
2023/06/07 00:25:05;;;;;;;;;;;;;;;17.23;100.00;99262.13;4305602;33;34934;-94
2023/06/07 00:27:34;;;;;;;;;;;;;;;17.10;100.00;99263.53;4305567;33;35302;-93
2023/06/07 00:30:05;;;;;;;;;;;;;;;17.01;100.00;99255.97;4305723;33;34034;-93
2023/06/07 00:32:34;;;;;;;;;;;;;;;16.92;100.00;99261.59;4305550;33;33798;-94
2023/06/07 00:35:01;;;;;;;;;;;;;;;16.86;100.00;99258.28;4292560;33;35058;-93
2023/06/07 00:37:30;;;;;;;;;;;;;;;17.10;100.00;99263.53;4305566;33;35173;-93
2023/06/07 00:39:58;;;;;;;;;;;;;;;16.92;100.00;99259.81;4305487;33;33087;-93
2023/06/07 00:42:26;;;;;;;;;;;;;;;17.01;100.00;99254.25;4292182;33;33405;-93
2023/06/07 00:44:54;;;;;;;;;;;;;;;17.22;100.00;99263.06;4305513;33;34966;-93
2023/06/07 00:47:22;;;;;;;;;;;;;;;17.68;100.00;99260.34;4292525;33;34424;-92
2023/06/07 00:49:50;;;;;;;;;;;;;;;17.19;100.00;99257.06;4292461;33;32349;-92
2023/06/07 00:52:17;;;;;;;;;;;;;;;17.68;100.00;99262.13;4292543;33;33861;-93
2023/06/07 00:54:45;;;;;;;;;;;;;;;17.23;100.00;99264.75;4305301;33;35788;-94
2023/06/07 00:57:13;;;;;;;;;;;;;;;17.13;100.00;99266.03;4280342;33;34533;-92
2023/06/07 00:59:41;;;;;;;;;;;;;;;17.31;100.00;99260.97;4292666;33;33392;-93
2023/06/07 01:02:09;;;;;;;;;;;;;;;16.92;100.00;99261.59;4280479;33;34989;-94
2023/06/07 01:04:40;;;;;;;;;;;;;;;17.16;100.00;99260.66;4304735;33;35255;-94
2023/06/07 01:07:08;;;;;;;;;;;;;;;16.91;100.00;99262.53;4305143;33;34689;-93
2023/06/07 01:09:40;;;;;;;;;;;;;;;16.87;100.00;99257.38;4305253;33;33736;-94
2023/06/07 01:12:08;;;;;;;;;;;;;;;16.87;100.00;99259.13;4292424;33;34133;-94
2023/06/07 01:14:37;;;;;;;;;;;;;;;16.73;100.00;99253.50;4305557;33;34768;-93
2023/06/07 01:17:06;;;;;;;;;;;;;;;16.84;100.00;99252.25;4305242;33;34642;-93
2023/06/07 01:19:36;;;;;;;;;;;;;;;16.87;100.00;99251.25;4305343;33;33824;-94
2023/06/07 01:22:04;;;;;;;;;;;;;;;16.76;100.00;99242.88;4305338;33;33892;-93
2023/06/07 01:24:35;;;;;;;;;;;;;;;16.63;100.00;99237.25;4292212;33;35194;-93
2023/06/07 01:27:03;;;;;;;;;;;;;;;16.66;100.00;99242.38;4292694;33;35561;-93
2023/06/07 01:29:31;;;;;;;;;;;;;;;16.64;100.00;99238.94;4305393;33;34082;-93
2023/06/07 01:32:03;;;;;;;;;;;;;;;16.58;100.00;99228.66;4305010;33;34673;-93
2023/06/07 01:34:31;;;;;;;;;;;;;;;16.58;100.00;99232.13;4305261;33;34850;-94
2023/06/07 01:36:59;;;;;;;;;;;;;;;16.57;100.00;99232.19;4305390;33;35126;-93
2023/06/07 01:39:27;;;;;;;;;;;;;;;16.60;100.00;99227.69;4292176;33;33172;-93
2023/06/07 01:41:55;;;;;;;;;;;;;;;16.62;100.00;99231.13;4292266;33;34072;-93
2023/06/07 01:44:22;;;;;;;;;;;;;;;16.73;100.00;99233.34;4292170;33;35131;-94
2023/06/07 01:46:51;;;;;;;;;;;;;;;16.61;100.00;99231.19;4305137;33;34809;-92
2023/06/07 01:49:21;;;;;;;;;;;;;;;16.61;100.00;99231.19;4305069;33;33761;-93
2023/06/07 01:51:48;;;;;;;;;;;;;;;16.56;100.00;99225.25;4292039;33;34885;-93
2023/06/07 01:54:16;;;;;;;;;;;;;;;16.55;100.00;99226.13;4304948;33;35245;-92
2023/06/07 01:56:48;;;;;;;;;;;;;;;16.67;100.00;99233.56;4291871;33;34423;-94
2023/06/07 01:59:19;;;;;;;;;;;;;;;16.82;100.00;99222.47;4291950;33;33288;-93
2023/06/07 02:01:47;;;;;;;;;;;;;;;16.73;100.00;99232.47;4304979;33;35049;-92
2023/06/07 02:04:17;;;;;;;;;;;;;;;16.60;100.00;99221.56;4304949;33;35198;-93
2023/06/07 02:06:45;;;;;;;;;;;;;;;16.74;100.00;99229.78;4292090;33;34422;-93
2023/06/07 02:09:15;;;;;;;;;;;;;;;16.84;100.00;99217.19;4292405;33;33254;-94
2023/06/07 02:11:43;;;;;;;;;;;;;;;16.74;100.00;99229.78;4291981;33;33741;-92
2023/06/07 02:14:11;;;;;;;;;;;;;;;16.80;100.00;99233.97;4291839;33;34951;-94
2023/06/07 02:16:41;;;;;;;;;;;;;;;16.79;100.00;99222.59;4292261;33;34748;-94
2023/06/07 02:19:12;;;;;;;;;;;;;;;16.70;100.00;99227.34;4292306;33;33314;-93
2023/06/07 02:21:44;;;;;;;;;;;;;;;16.74;100.00;99231.56;4292984;33;34853;-93
2023/06/07 02:24:12;;;;;;;;;;;;;;;16.67;100.00;99234.41;4291695;33;35756;-93
2023/06/07 02:26:42;;;;;;;;;;;;;;;16.58;100.00;99226.03;4304231;33;34710;-92
2023/06/07 02:29:09;;;;;;;;;;;;;;;16.87;100.00;99228.47;4292260;33;33239;-93
2023/06/07 02:31:37;;;;;;;;;;;;;;;17.23;100.00;99222.66;4291947;33;33981;-94
2023/06/07 02:34:07;;;;;;;;;;;;;;;16.80;100.00;99224.31;4291830;33;34970;-92
2023/06/07 02:36:39;;;;;;;;;;;;;;;16.85;100.00;99222.41;4292074;33;34420;-94
2023/06/07 02:39:08;;;;;;;;;;;;;;;16.77;100.00;99223.59;4304719;33;33321;-93
2023/06/07 02:41:36;;;;;;;;;;;;;;;16.68;100.00;99222.16;4291762;33;34616;-94
2023/06/07 02:44:03;;;;;;;;;;;;;;;16.65;100.00;99223.09;4279828;33;34858;-93
2023/06/07 02:46:32;;;;;;;;;;;;;;;16.75;100.00;99222.78;4304639;33;35390;-92
2023/06/07 02:48:59;;;;;;;;;;;;;;;16.72;100.00;99221.13;4304933;33;33334;-93
2023/06/07 02:51:28;;;;;;;;;;;;;;;16.58;100.00;99223.41;4304703;33;34970;-93
2023/06/07 02:53:56;;;;;;;;;;;;;;;16.52;100.00;99221.00;4291715;33;35117;-93
2023/06/07 02:56:25;;;;;;;;;;;;;;;16.61;100.00;99218.88;4304502;33;35049;-93
2023/06/07 02:58:53;;;;;;;;;;;;;;;16.60;100.00;99222.41;4304810;33;33788;-94
2023/06/07 03:01:22;;;;;;;;;;;;;;;16.48;100.00;99221.13;4291525;33;33339;-94
2023/06/07 03:03:50;;;;;;;;;;;;;;;17.07;100.00;99220.72;4279943;33;35536;-92
2023/06/07 03:06:19;;;;;;;;;;;;;;;16.97;100.00;99221.06;4304298;33;35433;-93
2023/06/07 03:08:47;;;;;;;;;;;;;;;16.96;100.00;99223.75;4291383;33;32905;-92
2023/06/07 03:11:16;;;;;;;;;;;;;;;16.64;100.00;99223.16;4291332;33;34204;-93
2023/06/07 03:13:44;;;;;;;;;;;;;;;17.15;100.00;99229.16;4291297;33;33745;-93
2023/06/07 03:16:13;;;;;;;;;;;;;;;17.31;100.00;99224.13;4304513;33;34550;-93
2023/06/07 03:18:41;;;;;;;;;;;;;;;17.53;100.00;99224.13;4304534;33;33428;-93
2023/06/07 03:21:09;;;;;;;;;;;;;;;16.86;100.00;99225.88;4304348;33;33867;-94
2023/06/07 03:23:37;;;;;;;;;;;;;;;16.60;100.00;99226.81;4304259;33;35625;-93
2023/06/07 03:26:07;;;;;;;;;;;;;;;16.91;100.00;99225.72;4304246;33;32564;-92
2023/06/07 03:28:34;;;;;;;;;;;;;;;16.77;100.00;99226.22;4291267;33;32972;-93
2023/06/07 03:31:03;;;;;;;;;;;;;;;17.12;100.00;99229.25;4291049;33;34686;-93
2023/06/07 03:33:32;;;;;;;;;;;;;;;17.30;100.00;99228.53;4291311;33;35206;-93
2023/06/07 03:36:00;;;;;;;;;;;;;;;17.36;100.00;99227.44;4291152;33;34653;-92
2023/06/07 03:38:28;;;;;;;;;;;;;;;17.20;100.00;99230.66;4292091;33;32999;-94
2023/06/07 03:40:56;;;;;;;;;;;;;;;16.83;100.00;99229.47;4281162;33;34332;-93
2023/06/07 03:43:25;;;;;;;;;;;;;;;16.76;100.00;99233.22;4306133;33;34904;-93
2023/06/07 03:45:53;;;;;;;;;;;;;;;16.66;100.00;99237.13;4305854;33;34607;-93
2023/06/07 03:48:21;;;;;;;;;;;;;;;16.75;100.00;99239.41;4305857;33;33177;-93
2023/06/07 03:50:50;;;;;;;;;;;;;;;16.63;100.00;99245.97;4280767;33;33666;-93
2023/06/07 03:53:18;;;;;;;;;;;;;;;16.73;100.00;99237.72;4292889;33;33945;-93
2023/06/07 03:55:47;;;;;;;;;;;;;;;16.88;100.00;99242.47;4292858;33;34617;-92
2023/06/07 03:58:18;;;;;;;;;;;;;;;17.02;100.00;99239.31;4292945;33;33823;-92
2023/06/07 04:00:49;;;;;;;;;;;;;;;17.17;100.00;99238.72;4305732;33;34508;-93
2023/06/07 04:03:21;;;;;;;;;;;;;;;17.01;100.00;99240.19;4280404;33;34516;-94
2023/06/07 04:05:49;;;;;;;;;;;;;;;17.34;100.00;99250.31;4293189;33;35427;-92
2023/06/07 04:08:17;;;;;;;;;;;;;;;17.12;100.00;99243.28;4292900;33;34045;-94
2023/06/07 04:10:45;;;;;;;;;;;;;;;17.33;100.00;99248.59;4305598;33;34985;-93
2023/06/07 04:13:13;;;;;;;;;;;;;;;17.20;100.00;99249.09;4303497;33;35286;-92
2023/06/07 04:15:42;;;;;;;;;;;;;;;17.41;100.00;99246.53;4292266;33;34437;-92
2023/06/07 04:18:10;;;;;;;;;;;;;;;17.47;100.00;99243.66;4292084;33;33121;-93
2023/06/07 04:20:42;;;;;;;;;;;;;;;17.55;100.00;99244.19;4292403;33;33797;-93
2023/06/07 04:23:10;;;;;;;;;;;;;;;17.66;100.00;99251.66;4305096;33;34907;-92
2023/06/07 04:25:39;;;;;;;;;;;;;;;17.57;100.00;99252.03;4291909;33;34620;-93
2023/06/07 04:28:10;;;;;;;;;;;;;;;17.56;100.00;99251.19;4304787;33;33411;-92
2023/06/07 04:30:42;;;;;;;;;;;;;;;17.69;100.00;99256.78;4292528;33;34049;-93
2023/06/07 04:33:13;;;;;;;;;;;;;;;17.76;100.00;99241.59;4292504;33;34646;-92
2023/06/07 04:35:42;;;;;;;;;;;;;;;17.77;100.00;99244.16;4292404;33;35030;-93
2023/06/07 04:38:11;;;;;;;;;;;;;;;17.97;100.00;99243.34;4305199;33;33315;-95
2023/06/07 04:40:41;;;;;;;;;;;;;;;17.97;100.00;99243.34;4291907;33;32613;-92
2023/06/07 04:43:10;;;;;;;;;;;;;;;18.05;100.00;99244.81;4292078;33;34460;-93
2023/06/07 04:45:41;;;;;;;;;;;;;;;17.88;100.00;99245.53;4291855;33;34737;-93
2023/06/07 04:48:12;;;;;;;;;;;;;;;17.93;100.00;99241.78;4305007;33;34040;-92
2023/06/07 04:50:43;;;;;;;;;;;;;;;17.97;100.00;99246.00;4304589;33;34767;-93
2023/06/07 04:53:11;;;;;;;;;;;;;;;18.11;100.00;99242.75;4304679;33;35289;-93
2023/06/07 04:55:41;;;;;;;;;;;;;;;18.13;100.00;99255.88;4291843;33;34761;-93
2023/06/07 04:58:09;;;;;;;;;;;;;;;18.26;100.00;99257.03;4305026;33;33442;-93
2023/06/07 05:00:39;;;;;;;;;;;;;;;18.23;100.00;99257.19;4304760;33;34145;-93
2023/06/07 05:03:08;;;;;;;;;;;;;;;18.37;100.00;99254.81;4292109;33;34932;-92
2023/06/07 05:05:37;;;;;;;;;;;;;;;18.30;100.00;99253.37;4279747;33;33619;-92
2023/06/07 05:08:05;;;;;;;;;;;;;;;18.35;100.00;99253.16;4304936;33;33098;-92
2023/06/07 05:10:33;;;;;;;;;;;;;;;18.34;100.00;99259.38;4304903;33;33805;-91
2023/06/07 05:13:02;;;;;;;;;;;;;;;18.41;100.00;99255.53;4304635;33;35964;-94
2023/06/07 05:15:31;;;;;;;;;;;;;;;18.51;100.00;99263.88;4291773;33;34440;-92
2023/06/07 05:17:59;;;;;;;;;;;;;;;18.30;100.00;99266.56;4304909;33;33806;-92
2023/06/07 05:20:28;;;;;;;;;;;;;;;18.38;100.00;99253.87;4304829;33;33051;-92
2023/06/07 05:22:56;;;;;;;;;;;;;;;18.49;100.00;99261.28;4291970;33;35009;-92
2023/06/07 05:25:25;;;;;;;;;;;;;;;18.24;100.00;99258.03;4304564;33;35122;-92
2023/06/07 05:27:52;;;;;;;;;;;;;;;18.32;100.00;99248.03;4291413;33;31787;-92
2023/06/07 05:30:39;;;;;;;;;;;;;;;18.64;100.00;99259.78;4304962;33;33955;-93
2023/06/07 05:33:07;;;;;;;;;;;;;;;18.56;100.00;99260.13;4291140;33;35180;-92
2023/06/07 05:35:36;;;;;;;;;;;;;;;19.06;97.98;99256.13;4304855;33;35458;-93
2023/06/07 05:38:05;;;;;;;;;;;;;;;19.01;96.28;99260.75;4291974;33;33492;-92
2023/06/07 05:40:32;;;;;;;;;;;;;;;18.96;93.76;99257.47;4291413;33;34101;-92
2023/06/07 05:43:03;;;;;;;;;;;;;;;18.88;92.59;99255.19;4291508;33;35198;-91
2023/06/07 05:45:37;;;;;;;;;;;;;;;18.76;93.32;99261.00;4292418;33;35055;-92
2023/06/07 05:48:05;;;;;;;;;;;;;;;19.23;88.42;99267.66;4304579;33;33335;-92
2023/06/07 05:50:34;;;;;;;;;;;;;;;19.10;88.92;99268.22;4304567;33;33744;-93
2023/06/07 05:53:02;;;;;;;;;;;;;;;19.51;87.22;99275.94;4279297;33;35443;-93
2023/06/07 05:55:30;;;;;;;;;;;;;;;19.16;90.38;99263.59;4291091;33;33949;-91
2023/06/07 05:58:00;;;;;;;;;;;;;;;19.28;91.93;99268.28;4304752;33;32624;-91
2023/06/07 06:00:28;;;;;;;;;;;;;;;19.19;92.10;99274.88;4303468;33;34543;-91
2023/06/07 06:02:59;;;;;;;;;;;;;;;19.07;92.11;99273.66;4304332;33;35068;-93
2023/06/07 06:05:30;;;;;;;;;;;;;;;19.09;94.67;99269.16;4304578;33;34171;-92
2023/06/07 06:07:58;;;;;;;;;;;;;;;19.01;92.21;99268.66;4304567;33;33291;-93
2023/06/07 06:10:26;;;;;;;;;;;;;;;19.27;91.46;99278.00;4291190;33;34872;-93
2023/06/07 06:12:55;;;;;;;;;;;;;;;19.36;88.24;99279.34;4291113;33;36081;-91
2023/06/07 06:15:23;;;;;;;;;;;;;;;19.41;90.04;99280.00;4291489;33;34471;-92
2023/06/07 06:17:54;;;;;;;;;;;;;;;19.72;85.60;99283.78;4304385;33;33785;-92
2023/06/07 06:20:22;;;;;;;;;;;;;;;19.47;86.91;99282.31;4292102;33;34914;-94
2023/06/07 06:22:51;;;;;;;;;;;;;;;19.37;85.97;99282.84;4304693;33;34998;-96
2023/06/07 06:25:19;;;;;;;;;;;;;;;19.37;87.59;99285.47;4304379;33;35328;-92
2023/06/07 06:27:47;;;;;;;;;;;;;;;19.51;91.41;99281.22;4304922;33;33793;-92
2023/06/07 06:30:16;;;;;;;;;;;;;;;19.65;88.45;99292.94;4304787;33;34179;-92
2023/06/07 06:32:43;;;;;;;;;;;;;;;19.62;89.46;99290.44;4291676;33;35008;-93
2023/06/07 06:35:11;;;;;;;;;;;;;;;19.76;88.22;99289.78;4291436;33;34708;-94
2023/06/07 06:37:39;;;;;;;;;;;;;;;19.68;89.59;99284.84;4293156;33;33085;-89
2023/06/07 06:40:07;;;;;;;;;;;;;;;19.72;81.58;99289.06;4306598;33;35151;-89
2023/06/07 06:42:35;;;;;;;;;;;;;;;19.99;82.51;99294.78;4306817;33;34982;-88
2023/06/07 06:45:09;;;;;;;;;;;;;;;20.07;78.35;99283.81;4306358;33;35039;-88
2023/06/07 06:47:41;;;;;;;;;;;;;;;20.04;79.25;99292.75;4293880;33;33365;-89
2023/06/07 06:50:13;;;;;;;;;;;;;;;20.30;78.63;99289.72;4305324;33;34741;-89
2023/06/07 06:53:18;;;;;;;;;;;;;;;20.54;77.70;99288.47;4296680;33;33976;-89
2023/06/07 06:56:29;;;;;;;;;;;;;;;20.57;77.19;99293.56;4316539;33;34739;-96
2023/06/07 06:58:58;;;;;;;;;;;;;;;21.50;74.07;99293.91;4321806;27;33295;-88
2023/06/07 07:02:15;;;;;;;;;;;;;;;21.64;74.21;99291.34;4326383;27;34727;-89
2023/06/07 07:04:43;;;;;;;;;;;;;;;21.91;73.91;99288.88;4277597;33;34969;-96
2023/06/07 07:07:46;;;;;;;;;;;;;;;22.80;68.62;99295.97;4347217;27;34334;-99
2023/06/07 07:10:18;;;;;;;;;;;;;;;22.41;75.65;99293.94;4295204;33;33729;-93
2023/06/07 07:13:06;;;;;;;;;;;;;;;22.60;66.59;99297.19;4302083;27;34148;-91
2023/06/07 07:15:34;;;;;;;;;;;;;;;21.60;73.09;99295.09;4298623;33;35020;-95
2023/06/07 07:18:02;;;;;;;;;;;;;;;22.10;69.80;99293.09;4295353;33;34819;-95
2023/06/07 07:20:30;;;;;;;;;;;;;;;21.89;70.77;99295.22;4303271;33;33170;-94
2023/06/07 07:23:04;;;;;;;;;;;;;;;22.21;69.23;99303.06;4297684;33;34135;-96
2023/06/07 07:25:32;;;;;;;;;;;;;;;21.43;73.08;99303.12;4299750;33;34161;-96
2023/06/07 07:28:03;;;;;;;;;;;;;;;21.73;70.55;99298.75;4294176;33;34578;-96
2023/06/07 07:30:47;;;;;;;;;;;;;;;21.94;67.81;99309.06;4297196;33;33293;-94
2023/06/07 07:33:15;;;;;;;;;;;;;;;20.92;73.20;99314.69;4299551;33;34189;-95
2023/06/07 07:35:43;;;;;;;;;;;;;;;21.19;76.03;99312.34;4297910;33;36083;-96
2023/06/07 07:38:15;;;;;;;;;;;;;;;21.49;71.82;99313.38;4298732;33;35117;-94
2023/06/07 07:40:44;;;;;;;;;;;;;;;21.23;72.33;99309.50;4297467;33;33311;-96
2023/06/07 07:43:17;;;;;;;;;;;;;;;21.22;72.50;99300.72;4284252;33;34318;-96
2023/06/07 07:45:45;;;;;;;;;;;;;;;21.81;71.57;99308.91;4306670;33;34931;-96
2023/06/07 07:48:15;;;;;;;;;;;;;;;21.43;68.50;99311.06;4311075;33;34706;-96
2023/06/07 07:50:42;;;;;;;;;;;;;;;21.55;70.25;99319.19;4305634;33;33741;-88
2023/06/07 07:53:11;;;;;;;;;;;;;;;21.31;73.84;99321.38;4293500;33;34146;-94
2023/06/07 07:55:38;;;;;;;;;;;;;;;21.69;71.77;99317.53;4263634;33;961807;-89
2023/06/07 07:58:07;;;;;;;;;;;;;;;21.92;72.33;99318.91;4292070;33;34463;-89
2023/06/07 08:00:35;;;;;;;;;;;;;;;22.03;67.86;99324.44;4292937;33;33097;-94
2023/06/07 08:03:03;;;;;;;;;;;;;;;21.69;68.55;99320.19;4292719;33;34237;-91
2023/06/07 08:05:31;;;;;;;;;;;;;;;21.32;70.45;99328.41;4292357;33;35154;-96
2023/06/07 08:08:00;;;;;;;;;;;;;;;21.91;69.79;99325.13;4279399;33;33493;-93
2023/06/07 08:10:33;;;;;;;;;;;;;;;21.71;68.61;99331.59;4294842;33;32677;-92
2023/06/07 08:13:01;;;;;;;;;;;;;;;21.49;70.56;99322.19;4292714;33;34088;-92
2023/06/07 08:15:33;;;;;;;;;;;;;;;21.28;76.10;99332.13;4292846;33;35959;-92
2023/06/07 08:18:01;;;;;;;;;;;;;;;21.30;75.73;99330.28;4300610;33;34437;-91
2023/06/07 08:20:29;;;;;;;;;;;;;;;21.82;72.45;99329.16;4308684;33;34081;-92
2023/06/07 08:22:57;;;;;;;;;;;;;;;21.40;72.76;99325.31;4310050;33;35363;-93
2023/06/07 08:25:25;;;;;;;;;;;;;;;22.21;69.56;99326.94;4310074;33;36282;-94
2023/06/07 08:27:53;;;;;;;;;;;;;;;22.12;69.37;99317.72;4293770;33;33974;-91
2023/06/07 08:30:28;;;;;;;;;;;;;;;22.33;70.05;99320.94;4276812;33;32481;-95
2023/06/07 08:33:02;;;;;;;;;;;;;;;;;;4275694;33;33612;-91
2023/06/07 08:35:31;;;;;;;;;;;;;;;22.45;69.83;99320.22;4290580;33;35496;-92
2023/06/07 08:38:00;;;;;;;;;;;;;;;22.43;70.30;99315.91;4289334;33;35337;-92
2023/06/07 08:40:27;;;;;;;;;;;;;;;22.61;70.59;99325.44;4289408;33;33351;-91
2023/06/07 08:42:57;;;;;;;;;;;;;;;22.18;71.64;99324.47;4289233;33;34978;-93
2023/06/07 08:45:24;;;;;;;;;;;;;;;22.94;68.79;99323.44;4288943;33;36067;-91
2023/06/07 08:47:53;;;;;;;;;;;;;;;22.46;70.56;99316.59;4289341;33;34661;-95
2023/06/07 08:50:21;;;;;;;;;;;;;;;22.46;69.28;99316.59;4303051;33;32090;-93
2023/06/07 08:52:51;;;;;;;;;;;;;;;23.04;66.63;99317.47;4303475;33;34584;-94
2023/06/07 08:55:19;;;;;;;;;;;;;;;23.31;64.85;99316.69;4303796;33;36029;-96
2023/06/07 08:57:52;;;;;;;;;;;;;;;23.30;64.97;99314.16;4304060;33;34359;-92
2023/06/07 09:00:21;;;;;;;;;;;;;;;23.73;63.08;99314.03;4305248;33;34071;-96
2023/06/07 09:02:53;;;;;;;;;;;;;;;23.11;65.40;99310.00;4304206;33;34395;-95
2023/06/07 09:05:21;;;;;;;;;;;;;;;23.10;67.26;99308.28;4304972;33;35252;-94
2023/06/07 09:07:50;;;;;;;;;;;;;;;23.38;66.22;99311.84;4304223;33;34595;-96
2023/06/07 09:10:19;;;;;;;;;;;;;;;22.95;66.14;99310.09;4292037;33;33191;-95
2023/06/07 09:12:49;;;;;;;;;;;;;;;23.44;68.11;99314.97;4290160;33;34189;-92
2023/06/07 09:15:24;;;;;;;;;;;;;;;24.18;63.46;99322.63;4290207;33;34647;-90
2023/06/07 09:17:58;;;;;;;;;;;;;;;24.59;60.55;99318.97;4291497;33;34761;-96
2023/06/07 09:20:27;;;;;;;;;;;;;;;24.41;60.83;99321.88;4304551;33;34090;-92
2023/06/07 09:23:04;;;;;;;;;;;;;;;23.39;65.54;99313.56;4304825;33;34986;-96
2023/06/07 09:25:35;;;;;;;;;;;;;;;24.18;63.19;99319.94;4304393;33;35240;-96
2023/06/07 09:28:03;;;;;;;;;;;;;;;24.37;61.96;99319.53;4302873;33;34689;-95
2023/06/07 09:30:32;;;;;;;;;;;;;;;23.39;64.11;99321.53;4289027;33;34101;-95
2023/06/07 09:33:00;;;;;;;;;;;;;;;24.08;63.02;99318.84;4289018;33;34949;-96
2023/06/07 09:35:28;;;;;;;;;;;;;;;23.95;64.58;99319.69;4289175;33;35338;-93
2023/06/07 09:37:59;;;;;;;;;;;;;;;24.15;62.56;99321.00;4290125;33;34625;-93
2023/06/07 09:40:28;;;;;;;;;;;;;;;23.48;63.39;99318.28;4289076;33;33345;-95
2023/06/07 09:42:57;;;;;;;;;;;;;;;24.08;62.78;99324.19;4290408;33;34927;-95
2023/06/07 09:45:27;;;;;;;;;;;;;;;24.81;59.39;99320.13;4290233;33;35171;-93
2023/06/07 09:48:02;;;;;;;;;;;;;;;24.47;60.36;99315.28;4290130;33;34695;-91
2023/06/07 09:50:30;;;;;;;;;;;;;;;24.76;62.11;99315.97;4290456;33;33444;-96
2023/06/07 09:52:58;;;;;;;;;;;;;;;24.48;63.95;99326.78;4289911;33;34179;-95
2023/06/07 09:55:29;;;;;;;;;;;;;;;23.92;62.93;99319.88;4302387;33;35308;-96
2023/06/07 09:57:58;;;;;;;;;;;;;;;23.77;63.48;99316.41;4303416;33;34464;-96
2023/06/07 10:00:27;;;;;;;;;;;;;;;24.80;61.10;99316.59;4304331;33;34072;-95
2023/06/07 10:03:05;;;;;;;;;;;;;;;24.45;64.87;99308.37;4303577;33;34484;-92
2023/06/07 10:05:34;;;;;;;;;;;;;;;24.26;65.70;99317.59;4304321;33;36029;-95
2023/06/07 10:08:05;;;;;;;;;;;;;;;24.51;62.74;99315.94;4304281;33;35019;-91
2023/06/07 10:10:34;;;;;;;;;;;;;;;24.53;61.79;99306.94;4304077;33;33135;-96
2023/06/07 10:13:04;;;;;;;;;;;;;;;24.31;62.53;99304.84;4303425;33;33436;-92
2023/06/07 10:15:34;;;;;;;;;;;;;;;23.71;63.07;99305.31;4290997;33;34958;-90
2023/06/07 10:18:08;;;;;;;;;;;;;;;23.94;64.34;99307.31;4291185;33;32999;-90
2023/06/07 10:20:45;;;;;;;;;;;;;;;23.11;68.92;99304.69;4303219;33;33301;-95
2023/06/07 10:23:17;;;;;;;;;;;;;;;23.79;63.53;99309.19;4303147;33;34076;-92
2023/06/07 10:25:48;;;;;;;;;;;;;;;23.64;63.78;99305.69;4304020;33;35233;-95
2023/06/07 10:28:22;;;;;;;;;;;;;;;23.38;63.27;99301.22;4303442;33;34381;-94
2023/06/07 10:31:12;;;;;;;;;;;;;;;22.84;65.49;99304.59;4304000;33;33870;-96
2023/06/07 10:33:43;;;;;;;;;;;;;;;23.32;64.93;99304.28;4303251;33;34053;-96
2023/06/07 10:36:12;;;;;;;;;;;;;;;23.57;65.53;99308.88;4304054;33;35247;-95
2023/06/07 10:38:41;;;;;;;;;;;;;;;23.67;65.59;99309.97;4290958;33;34872;-96
2023/06/07 10:41:08;;;;;;;;;;;;;;;23.58;64.99;99306.13;4302823;33;34127;-91
2023/06/07 10:43:40;;;;;;;;;;;;;;;23.76;67.64;99306.72;4303056;33;34138;-90
2023/06/07 10:46:22;;;;;;;;;;;;;;;23.79;63.93;99310.97;4290714;33;35242;-90
2023/06/07 10:48:52;;;;;;;;;;;;;;;23.48;66.26;99305.84;4303570;33;34515;-91
2023/06/07 10:51:39;;;;;;;;;;;;;;;23.84;64.64;99300.91;4291033;33;33374;-91
2023/06/07 10:54:07;;;;;;;;;;;;;;;24.23;66.23;99301.88;4302508;33;34107;-90
2023/06/07 10:56:36;;;;;;;;;;;;;;;24.24;61.34;99295.56;4302808;33;35941;-91
2023/06/07 10:59:20;;;;;;;;;;;;;;;24.41;62.18;99295.28;4303650;33;34699;-91
2023/06/07 11:01:52;;;;;;;;;;;;;;;23.98;62.72;99297.34;4304358;33;32815;-91
2023/06/07 11:04:34;;;;;;;;;;;;;;;24.07;63.48;99303.84;4303531;33;34984;-96
2023/06/07 11:07:19;;;;;;;;;;;;;;;24.33;62.52;99308.25;4303756;33;34931;-94
2023/06/07 11:09:48;;;;;;;;;;;;;;;24.73;61.57;99300.19;4303942;33;34389;-94
2023/06/07 11:12:43;;;;;;;;;;;;;;;24.50;60.52;99304.44;4303989;33;33469;-93
2023/06/07 11:15:17;;;;;;;;;;;;;;;23.43;63.80;99299.13;4301410;33;33766;-96
2023/06/07 11:17:50;;;;;;;;;;;;;;;24.70;60.76;99295.09;4303644;33;35321;-95
2023/06/07 11:20:43;;;;;;;;;;;;;;;24.01;68.07;99297.13;4282617;33;34935;-93
2023/06/07 11:23:31;;;;;;;;;;;;;;;24.67;61.84;99295.31;4289217;33;33118;-94
2023/06/07 11:26:02;;;;;;;;;;;;;;;24.47;63.38;99299.31;4287573;33;34002;-94
2023/06/07 11:28:37;;;;;;;;;;;;;;;24.77;61.53;99296.34;4303453;33;36001;-94
2023/06/07 11:31:09;;;;;;;;;;;;;;;25.18;59.63;99291.69;4304338;33;34766;-93
2023/06/07 11:33:41;;;;;;;;;;;;;;;24.95;63.61;99296.00;4303436;33;33122;-95
2023/06/07 11:36:09;;;;;;;;;;;;;;;25.09;61.62;99290.56;4302009;33;34967;-91
2023/06/07 11:38:38;;;;;;;;;;;;;;;24.83;60.64;99294.22;4302213;33;35307;-92
2023/06/07 11:41:06;;;;;;;;;;;;;;;25.31;56.59;99294.38;4301727;33;34641;-92
2023/06/07 11:43:34;;;;;;;;;;;;;;;24.96;58.56;99295.06;4302017;33;33318;-90
2023/06/07 11:46:03;;;;;;;;;;;;;;;25.13;57.98;99292.06;4301715;33;34234;-96
2023/06/07 11:48:31;;;;;;;;;;;;;;;24.77;60.52;99295.50;4303317;33;35142;-95
2023/06/07 11:50:59;;;;;;;;;;;;;;;24.43;62.77;99289.84;4301986;33;33946;-95
2023/06/07 11:53:31;;;;;;;;;;;;;;;24.32;66.12;99290.59;4302087;33;34097;-95
2023/06/07 11:55:59;;;;;;;;;;;;;;;25.13;58.33;99281.41;4302819;33;35201;-94
2023/06/07 11:58:28;;;;;;;;;;;;;;;24.91;61.67;99286.56;4302203;33;34439;-95
2023/06/07 12:00:57;;;;;;;;;;;;;;;25.33;58.63;99281.78;4304883;33;35446;-95
2023/06/07 12:03:25;;;;;;;;;;;;;;;24.99;61.77;99278.88;4305244;33;33420;-92
2023/06/07 12:05:54;;;;;;;;;;;;;;;25.55;57.65;99278.38;4304052;33;33844;-89
2023/06/07 12:08:22;;;;;;;;;;;;;;;25.99;57.40;99273.41;4304382;33;35947;-96
2023/06/07 12:10:52;;;;;;;;;;;;;;;25.12;59.26;99263.69;4305093;33;35282;-95
2023/06/07 12:13:21;;;;;;;;;;;;;;;25.90;56.23;99258.91;4305085;33;32766;-95
2023/06/07 12:15:51;;;;;;;;;;;;;;;25.98;56.15;99261.87;4304857;33;34940;-89
2023/06/07 12:18:21;;;;;;;;;;;;;;;25.75;58.14;99255.59;4304994;33;36133;-90
2023/06/07 12:21:01;;;;;;;;;;;;;;;26.12;56.59;99252.81;4291754;33;33834;-90
2023/06/07 12:23:29;;;;;;;;;;;;;;;26.03;54.74;99242.84;4303962;33;33328;-92
2023/06/07 12:26:16;;;;;;;;;;;;;;;26.79;54.06;99232.50;4304802;33;34888;-89
2023/06/07 12:28:50;;;;;;;;;;;;;;;27.20;52.36;99228.31;4305223;33;34958;-90
2023/06/07 12:31:37;;;;;;;;;;;;;;;27.22;51.12;99227.22;4304816;33;35511;-93
2023/06/07 12:34:06;;;;;;;;;;;;;;;27.85;51.08;99226.53;4304896;33;33486;-89
2023/06/07 12:36:34;;;;;;;;;;;;;;;28.10;49.24;99224.47;4304943;33;33857;-94
2023/06/07 12:39:07;;;;;;;;;;;;;;;26.47;52.01;99219.84;4291615;33;34176;-95
2023/06/07 12:41:36;;;;;;;;;;;;;;;27.68;50.08;99229.75;4304701;33;34852;-96
2023/06/07 12:44:06;;;;;;;;;;;;;;;28.05;49.91;99221.34;4304705;33;33449;-94
2023/06/07 12:46:34;;;;;;;;;;;;;;;27.70;51.04;99225.97;4305084;33;34668;-95
2023/06/07 12:49:02;;;;;;;;;;;;;;;27.32;50.51;99226.47;4304154;33;35078;-89
2023/06/07 12:51:33;;;;;;;;;;;;;;;26.14;51.96;99224.19;4305085;33;34735;-89
2023/06/07 12:54:02;;;;;;;;;;;;;;;26.56;54.75;99224.47;4304293;33;33329;-91
2023/06/07 12:56:30;;;;;;;;;;;;;;;26.62;52.80;99229.34;4304992;33;33961;-93
2023/06/07 12:58:58;;;;;;;;;;;;;;;26.11;54.75;99224.41;4305749;33;35155;-91